createdAt,value
2023-04-26T00:00:19.061Z,19.1
2023-04-26T00:10:20.189Z,19.4
2023-04-26T00:20:20.684Z,19.1
2023-04-26T00:30:21.820Z,18.9
2023-04-26T00:40:23.377Z,18.9
2023-04-26T00:50:23.807Z,19.1
2023-04-26T01:00:24.945Z,19
2023-04-26T01:10:24.705Z,18.9
2023-04-26T01:20:25.394Z,18.6
2023-04-26T01:30:25.780Z,18.6
2023-04-26T01:40:25.179Z,18.6
2023-04-26T01:50:25.849Z,19
2023-04-26T02:00:26.633Z,18.9
2023-04-26T02:10:26.143Z,18.5
2023-04-26T02:20:25.942Z,18.4
2023-04-26T02:30:25.824Z,18.4
2023-04-26T02:40:26.259Z,18.4
2023-04-26T02:50:26.763Z,18.4
2023-04-26T03:10:09.293Z,18.4
2023-04-26T03:20:09.337Z,18.4
2023-04-26T03:30:09.081Z,18.4
2023-04-26T03:40:08.961Z,18.4
2023-04-26T03:50:09.117Z,18.3
2023-04-26T04:00:10.515Z,18.6
2023-04-26T04:10:17.185Z,18.3
2023-04-26T04:20:19.565Z,18.5
2023-04-26T04:30:21.196Z,18.4
2023-04-26T04:40:26.866Z,18.9
2023-04-26T04:50:35.429Z,18.5
2023-04-26T05:00:38.746Z,18.6
2023-04-26T05:10:44.909Z,19.3
2023-04-26T05:20:54.802Z,18.9
2023-04-26T05:31:10.689Z,18.6
2023-04-26T05:41:21.766Z,18.8
2023-04-26T05:51:37.570Z,18.9
2023-04-26T06:01:53.058Z,19
2023-04-26T06:12:08.102Z,19.3
2023-04-26T06:22:24.193Z,19.6
2023-04-26T06:32:35.101Z,19.4
2023-04-26T06:42:50.628Z,19.8
2023-04-26T06:53:06.242Z,19.7
2023-04-26T07:03:20.929Z,19.6
2023-04-26T07:13:39.490Z,20.1
2023-04-26T07:23:56.157Z,21.4
2023-04-26T07:34:12.127Z,20.3
2023-04-26T07:44:30.788Z,20.3
2023-04-26T07:54:48.890Z,20.3
2023-04-26T08:05:07.339Z,20.7
2023-04-26T08:15:24.952Z,20.7
2023-04-26T08:25:38.158Z,20.9
2023-04-26T08:35:50.840Z,20.9
2023-04-26T08:46:03.022Z,21.3
2023-04-26T08:56:15.344Z,21.2
2023-04-26T09:10:22.220Z,21.3
2023-04-26T09:20:34.453Z,21.4
2023-04-26T09:30:46.795Z,21.6
2023-04-26T09:40:59.226Z,21.3
2023-04-26T09:51:11.842Z,21
2023-04-26T10:01:25.036Z,21.3
2023-04-26T10:11:40.482Z,21.4
2023-04-26T10:21:53.154Z,21.2
2023-04-26T10:32:06.387Z,21.7
2023-04-26T10:42:19.184Z,21.2
2023-04-26T10:52:32.163Z,21.3
2023-04-26T11:02:44.257Z,21.4
2023-04-26T11:12:56.079Z,21.6
2023-04-26T11:23:07.860Z,21.4
2023-04-26T11:33:19.644Z,21.6
2023-04-26T11:43:26.904Z,21.8
2023-04-26T11:53:38.584Z,21.4
2023-04-26T12:03:50.451Z,21.6
2023-04-26T12:14:00.364Z,22.2
2023-04-26T12:24:07.954Z,21.4
2023-04-26T12:34:15.650Z,21.4
2023-04-26T12:44:22.757Z,22
2023-04-26T12:54:30.610Z,21.8
2023-04-26T13:04:40.897Z,22.1
2023-04-26T13:14:43.072Z,21.7
2023-04-26T13:24:47.098Z,21.2
2023-04-26T13:34:47.979Z,21.3
2023-04-26T13:44:49.529Z,21.2
2023-04-26T13:54:52.121Z,21.3
2023-04-26T14:04:54.713Z,21.2
2023-04-26T14:14:56.128Z,21.1
2023-04-26T14:24:57.931Z,21.1
2023-04-26T14:34:58.169Z,20.9
2023-04-26T14:44:59.211Z,20.9
2023-04-26T14:55:00.744Z,20.8
2023-04-26T15:10:07.501Z,20.9
2023-04-26T15:20:09.292Z,20.6
2023-04-26T15:30:09.242Z,20.6
2023-04-26T15:40:09.341Z,20.9
2023-04-26T15:50:09.677Z,20.9
2023-04-26T16:00:09.872Z,20.4
2023-04-26T16:10:12.147Z,20.3
2023-04-26T16:20:14.443Z,20.4
2023-04-26T16:30:16.561Z,20.4
2023-04-26T16:40:17.909Z,20.4
2023-04-26T16:50:19.456Z,20.3
2023-04-26T17:00:21.649Z,20.3
2023-04-26T17:10:21.455Z,20.2
2023-04-26T17:20:21.654Z,20.2
2023-04-26T17:30:22.083Z,20.1
2023-04-26T17:40:21.893Z,20.1
2023-04-26T17:50:23.231Z,20.3
2023-04-26T18:00:23.652Z,19.9
2023-04-26T18:10:24.118Z,19.8
2023-04-26T18:20:25.786Z,19.8
2023-04-26T18:30:25.520Z,19.8
2023-04-26T18:40:26.426Z,19.7
2023-04-26T18:50:27.093Z,19.8
2023-04-26T19:00:26.994Z,19.6
2023-04-26T19:10:27.408Z,19.7
2023-04-26T19:20:27.910Z,19.6
2023-04-26T19:30:28.133Z,20.1
2023-04-26T19:40:29.322Z,19.6
2023-04-26T19:50:30.380Z,20
2023-04-26T20:00:30.967Z,19.6
2023-04-26T20:10:30.994Z,19.6
2023-04-26T20:20:31.104Z,19.5
2023-04-26T20:30:32.853Z,19.8
2023-04-26T20:40:33.737Z,19.6
2023-04-26T20:50:36.357Z,19.5
2023-04-26T21:10:06.848Z,19.5
2023-04-26T21:20:07.216Z,19.4
2023-04-26T21:30:07.605Z,19.4
2023-04-26T21:40:07.604Z,19.4
2023-04-26T21:50:07.257Z,19.3
2023-04-26T22:00:07.924Z,19.4
2023-04-26T22:10:09.578Z,19.3
2023-04-26T22:20:10.776Z,19.3
2023-04-26T22:30:24.433Z,19.2
2023-04-26T22:40:14.676Z,19.3
2023-04-26T22:50:15.166Z,19.2
2023-04-26T23:00:16.097Z,19.1
2023-04-26T23:10:15.880Z,19.1
2023-04-26T23:20:15.527Z,19
2023-04-26T23:30:15.610Z,19.1
2023-04-26T23:40:15.662Z,19.3
2023-04-26T23:50:15.476Z,19.1
